16 minutes ago
METAR EHMA 031355Z AUTO 02007KT 340V060 9999 NSC 16/11 Q1014

METAR definition | Embed

METAR AWG-1

This field is located in The Netherlands.

This report was made for AWG-1 on August 3, 2021 3:55 pm, local time.

Airport observations

The wind is from direction northnortheast (020°) with a speed of 7 kt. The wind direction varies between northnorthwest (340°) and eastnortheast (060°).

Visibility is 6¼ mi or more.

There are no significant clouds are observed. No ceiling has been observed.

The temperature and wind chill are 61 °F. The dew point is 52 °F, the relative humidity is 72%. The air pressure at sea level is 29.94 inHg (QNH).

Daylight period

Today the sun rises at 5:55 am and sets at 9:28 pm. This applies to AWG-1, the universal daylight period may be different. The difference between the local time and UTC is +2 hour. Daylight saving time is currently in progress.

Historical data

Donate

Will you help us to keep Metar-Taf.com running?
Your contribution helps further development of the site and to pay for the expenses.

No more ads

Are you donating $ 5 or more? Then we'll never show you ads again, as a token of our eternal gratitude!
Log in before you donate

Do you want the flying weather of AWG-1 on your website? Read more   Free!